OAS1503 SPHY-SLUY
Flight info
| Callsign | OAS1503 |
|---|---|
| Flight time | 2h 0m |
| Altitude | 25000 |
| Route | JUL UP408 BOGUB |
| Aircraft | B350/L-SBGRW/S |
Departure
| Time | 2026-05-07 15:46 |
|---|---|
| Airport | Andahuaylas Airport (SPHY) |
Arrival
| Time | 2026-05-07 17:46 |
|---|---|
| Airport | Joya Andina International Airport (SLUY) |
| Time | Latitude | Longitude | Altitude | Speed | Heading |
|---|---|---|---|---|---|
| 2026-05-07 15:37 | -13.71244 | -73.35258 | 11655 ft | 0 kts | 195° |
| 2026-05-07 15:41 | -13.71245 | -73.35258 | 11655 ft | 1 kts | 194° |
| 2026-05-07 15:42 | -13.71229 | -73.35296 | 11656 ft | 10 kts | 307° |
| 2026-05-07 15:42 | -13.71186 | -73.35327 | 11658 ft | 6 kts | 10° |
| 2026-05-07 15:42 | -13.71121 | -73.35296 | 11660 ft | 18 kts | 30° |
| 2026-05-07 15:42 | -13.70992 | -73.35212 | 11662 ft | 24 kts | 34° |
| 2026-05-07 15:43 | -13.70836 | -73.35116 | 11673 ft | 28 kts | 32° |
| 2026-05-07 15:43 | -13.70673 | -73.35011 | 11681 ft | 26 kts | 32° |
| 2026-05-07 15:43 | -13.70541 | -73.34926 | 11689 ft | 20 kts | 38° |
| 2026-05-07 15:43 | -13.70433 | -73.34855 | 11692 ft | 17 kts | 30° |
| 2026-05-07 15:44 | -13.70344 | -73.34799 | 11696 ft | 13 kts | 29° |
| 2026-05-07 15:44 | -13.70263 | -73.34750 | 11697 ft | 19 kts | 29° |
| 2026-05-07 15:44 | -13.70123 | -73.34667 | 11703 ft | 24 kts | 26° |
| 2026-05-07 15:44 | -13.69991 | -73.34593 | 11705 ft | 19 kts | 28° |
| 2026-05-07 15:45 | -13.69958 | -73.34563 | 11705 ft | 3 kts | 176° |
| 2026-05-07 15:45 | -13.70077 | -73.34632 | 11700 ft | 46 kts | 212° |
| 2026-05-07 15:45 | -13.70509 | -73.34906 | 11690 ft | 99 kts | 211° |
| 2026-05-07 15:45 | -13.71218 | -73.35378 | 11669 ft | 141 kts | 204° |
| 2026-05-07 15:46 | -13.73300 | -73.36596 | 12104 ft | 191 kts | 201° |
| 2026-05-07 15:46 | -13.74579 | -73.36980 | 12838 ft | 194 kts | 189° |
| 2026-05-07 15:46 | -13.75919 | -73.36927 | 13345 ft | 188 kts | 166° |
| 2026-05-07 15:47 | -13.77248 | -73.36692 | 13621 ft | 208 kts | 180° |
| 2026-05-07 15:47 | -13.78778 | -73.36711 | 13699 ft | 230 kts | 181° |
| 2026-05-07 15:47 | -13.80380 | -73.36743 | 14051 ft | 237 kts | 181° |
| 2026-05-07 15:47 | -13.82049 | -73.36636 | 14410 ft | 239 kts | 164° |
| 2026-05-07 15:48 | -13.83491 | -73.35863 | 14741 ft | 240 kts | 134° |
| 2026-05-07 15:48 | -13.84386 | -73.34419 | 15073 ft | 241 kts | 110° |
| 2026-05-07 15:48 | -13.84657 | -73.32723 | 15411 ft | 242 kts | 86° |
| 2026-05-07 15:48 | -13.84363 | -73.31013 | 15752 ft | 244 kts | 76° |
| 2026-05-07 15:49 | -13.83946 | -73.29321 | 16088 ft | 245 kts | 76° |
| 2026-05-07 15:49 | -13.83511 | -73.27615 | 16419 ft | 247 kts | 76° |
| 2026-05-07 15:49 | -13.83067 | -73.25894 | 16754 ft | 251 kts | 76° |
| 2026-05-07 15:49 | -13.82614 | -73.24153 | 17097 ft | 252 kts | 76° |
| 2026-05-07 15:50 | -13.82161 | -73.22406 | 17433 ft | 253 kts | 76° |
| 2026-05-07 15:50 | -13.81780 | -73.20638 | 17777 ft | 253 kts | 82° |
| 2026-05-07 15:50 | -13.81627 | -73.18838 | 18119 ft | 254 kts | 90° |
| 2026-05-07 15:50 | -13.81746 | -73.17009 | 18459 ft | 252 kts | 99° |
| 2026-05-07 15:51 | -13.82128 | -73.15275 | 18784 ft | 251 kts | 109° |
| 2026-05-07 15:51 | -13.82852 | -73.13648 | 19086 ft | 250 kts | 121° |
| 2026-05-07 15:51 | -13.83784 | -73.12140 | 19380 ft | 250 kts | 123° |
| 2026-05-07 15:51 | -13.84692 | -73.10613 | 19665 ft | 250 kts | 121° |
| 2026-05-07 15:52 | -13.85551 | -73.09055 | 19965 ft | 250 kts | 120° |
| 2026-05-07 15:52 | -13.86408 | -73.07501 | 20264 ft | 249 kts | 121° |
| 2026-05-07 15:52 | -13.87274 | -73.05962 | 20561 ft | 248 kts | 121° |
| 2026-05-07 15:52 | -13.88133 | -73.04441 | 20930 ft | 243 kts | 121° |
| 2026-05-07 15:53 | -13.88967 | -73.02948 | 21356 ft | 238 kts | 121° |
| 2026-05-07 15:53 | -13.89780 | -73.01492 | 21802 ft | 232 kts | 122° |
| 2026-05-07 15:53 | -13.90573 | -73.00078 | 22252 ft | 225 kts | 122° |
| 2026-05-07 15:53 | -13.91349 | -72.98695 | 22719 ft | 220 kts | 122° |
| 2026-05-07 15:54 | -13.92105 | -72.97343 | 23179 ft | 215 kts | 122° |
| 2026-05-07 15:54 | -13.92848 | -72.96017 | 23653 ft | 212 kts | 123° |
| 2026-05-07 15:54 | -13.93580 | -72.94709 | 24080 ft | 209 kts | 122° |
| 2026-05-07 15:54 | -13.94292 | -72.93435 | 24466 ft | 202 kts | 122° |
| 2026-05-07 15:55 | -13.94979 | -72.92208 | 24868 ft | 194 kts | 122° |
| 2026-05-07 15:55 | -13.95644 | -72.91020 | 25235 ft | 191 kts | 122° |
| 2026-05-07 15:55 | -13.96336 | -72.89789 | 25267 ft | 207 kts | 122° |
| 2026-05-07 15:55 | -13.97085 | -72.88457 | 25272 ft | 223 kts | 122° |
| 2026-05-07 15:56 | -13.97886 | -72.87025 | 25276 ft | 238 kts | 122° |
| 2026-05-07 15:56 | -13.98734 | -72.85511 | 25283 ft | 250 kts | 122° |
| 2026-05-07 15:56 | -13.99617 | -72.83923 | 25281 ft | 261 kts | 122° |
| 2026-05-07 15:56 | -14.00538 | -72.82277 | 25280 ft | 270 kts | 122° |
| 2026-05-07 15:57 | -14.01166 | -72.81158 | 25275 ft | 275 kts | 122° |
| 2026-05-07 15:57 | -14.02133 | -72.79430 | 25270 ft | 282 kts | 122° |
| 2026-05-07 15:57 | -14.03119 | -72.77664 | 25269 ft | 287 kts | 122° |
| 2026-05-07 15:57 | -14.04123 | -72.75865 | 25266 ft | 292 kts | 122° |
| 2026-05-07 15:58 | -14.05143 | -72.74039 | 25262 ft | 296 kts | 122° |
| 2026-05-07 15:58 | -14.06175 | -72.72192 | 25264 ft | 299 kts | 122° |
| 2026-05-07 15:58 | -14.07215 | -72.70327 | 25262 ft | 302 kts | 121° |
| 2026-05-07 15:58 | -14.08269 | -72.68440 | 25262 ft | 305 kts | 122° |
| 2026-05-07 15:59 | -14.09327 | -72.66545 | 25258 ft | 306 kts | 121° |
| 2026-05-07 15:59 | -14.10389 | -72.64639 | 25258 ft | 307 kts | 121° |
| 2026-05-07 15:59 | -14.11455 | -72.62729 | 25252 ft | 308 kts | 121° |
| 2026-05-07 15:59 | -14.12510 | -72.60842 | 25253 ft | 309 kts | 121° |
| 2026-05-07 16:00 | -14.13582 | -72.58919 | 25249 ft | 310 kts | 121° |
| 2026-05-07 16:00 | -14.14667 | -72.56966 | 25248 ft | 310 kts | 121° |
| 2026-05-07 16:00 | -14.15741 | -72.55036 | 25243 ft | 311 kts | 121° |
| 2026-05-07 16:00 | -14.16805 | -72.53131 | 25237 ft | 311 kts | 121° |
| 2026-05-07 16:01 | -14.17884 | -72.51198 | 25236 ft | 311 kts | 121° |
| 2026-05-07 16:01 | -14.18961 | -72.49265 | 25237 ft | 311 kts | 121° |
| 2026-05-07 16:01 | -14.20036 | -72.47329 | 25237 ft | 312 kts | 121° |
| 2026-05-07 16:01 | -14.21114 | -72.45387 | 25234 ft | 312 kts | 121° |
| 2026-05-07 16:02 | -14.22198 | -72.43444 | 25231 ft | 313 kts | 121° |
| 2026-05-07 16:02 | -14.23282 | -72.41499 | 25222 ft | 313 kts | 121° |
| 2026-05-07 16:02 | -14.24363 | -72.39554 | 25222 ft | 313 kts | 121° |
| 2026-05-07 16:02 | -14.25442 | -72.37610 | 25220 ft | 312 kts | 121° |
| 2026-05-07 16:03 | -14.26523 | -72.35669 | 25215 ft | 312 kts | 121° |
| 2026-05-07 16:03 | -14.27600 | -72.33731 | 25212 ft | 312 kts | 121° |
| 2026-05-07 16:03 | -14.28677 | -72.31792 | 25216 ft | 312 kts | 121° |
| 2026-05-07 16:03 | -14.29754 | -72.29852 | 25213 ft | 312 kts | 121° |
| 2026-05-07 16:04 | -14.30832 | -72.27917 | 25212 ft | 311 kts | 121° |
| 2026-05-07 16:04 | -14.31907 | -72.25977 | 25206 ft | 312 kts | 121° |
| 2026-05-07 16:04 | -14.32983 | -72.24033 | 25206 ft | 312 kts | 121° |
| 2026-05-07 16:04 | -14.34062 | -72.22092 | 25200 ft | 312 kts | 121° |
| 2026-05-07 16:05 | -14.35144 | -72.20149 | 25200 ft | 313 kts | 121° |
| 2026-05-07 16:05 | -14.36225 | -72.18197 | 25194 ft | 313 kts | 121° |
| 2026-05-07 16:05 | -14.37305 | -72.16245 | 25191 ft | 314 kts | 121° |
| 2026-05-07 16:05 | -14.38388 | -72.14291 | 25187 ft | 314 kts | 121° |
| 2026-05-07 16:06 | -14.39473 | -72.12339 | 25186 ft | 314 kts | 121° |
| 2026-05-07 16:06 | -14.40555 | -72.10387 | 25189 ft | 314 kts | 121° |
| 2026-05-07 16:06 | -14.41636 | -72.08432 | 25188 ft | 314 kts | 121° |
| 2026-05-07 16:06 | -14.42721 | -72.06475 | 25183 ft | 314 kts | 121° |
| 2026-05-07 16:07 | -14.43806 | -72.04517 | 25174 ft | 314 kts | 121° |
| 2026-05-07 16:07 | -14.44889 | -72.02560 | 25169 ft | 315 kts | 121° |
| 2026-05-07 16:07 | -14.45972 | -72.00600 | 25170 ft | 314 kts | 121° |
| 2026-05-07 16:07 | -14.47056 | -71.98642 | 25169 ft | 314 kts | 121° |
| 2026-05-07 16:08 | -14.48142 | -71.96683 | 25164 ft | 315 kts | 121° |
| 2026-05-07 16:08 | -14.49225 | -71.94721 | 25167 ft | 315 kts | 121° |
| 2026-05-07 16:08 | -14.50311 | -71.92760 | 25165 ft | 315 kts | 121° |
| 2026-05-07 16:08 | -14.51395 | -71.90800 | 25168 ft | 315 kts | 121° |
| 2026-05-07 16:09 | -14.52477 | -71.88838 | 25165 ft | 315 kts | 121° |
| 2026-05-07 16:09 | -14.53563 | -71.86874 | 25165 ft | 315 kts | 121° |
| 2026-05-07 16:09 | -14.54634 | -71.84938 | 25164 ft | 315 kts | 121° |
| 2026-05-07 16:09 | -14.55731 | -71.82949 | 25166 ft | 315 kts | 121° |
| 2026-05-07 16:10 | -14.56801 | -71.81011 | 25164 ft | 315 kts | 121° |
| 2026-05-07 16:10 | -14.57887 | -71.79044 | 25169 ft | 315 kts | 121° |
| 2026-05-07 16:10 | -14.58972 | -71.77077 | 25168 ft | 315 kts | 121° |
| 2026-05-07 16:10 | -14.60058 | -71.75110 | 25163 ft | 316 kts | 121° |
| 2026-05-07 16:11 | -14.61145 | -71.73140 | 25171 ft | 316 kts | 121° |
| 2026-05-07 16:11 | -14.62230 | -71.71171 | 25165 ft | 316 kts | 121° |
| 2026-05-07 16:11 | -14.63317 | -71.69198 | 25170 ft | 316 kts | 121° |
| 2026-05-07 16:11 | -14.64405 | -71.67228 | 25169 ft | 316 kts | 121° |
| 2026-05-07 16:12 | -14.65491 | -71.65256 | 25170 ft | 316 kts | 121° |
| 2026-05-07 16:12 | -14.66576 | -71.63281 | 25167 ft | 316 kts | 121° |
| 2026-05-07 16:12 | -14.67665 | -71.61308 | 25167 ft | 316 kts | 121° |
| 2026-05-07 16:12 | -14.68753 | -71.59335 | 25168 ft | 316 kts | 121° |
| 2026-05-07 16:13 | -14.69840 | -71.57359 | 25162 ft | 316 kts | 121° |
| 2026-05-07 16:13 | -14.70925 | -71.55383 | 25164 ft | 316 kts | 121° |
| 2026-05-07 16:13 | -14.72013 | -71.53409 | 25165 ft | 316 kts | 121° |
| 2026-05-07 16:13 | -14.73097 | -71.51439 | 25163 ft | 316 kts | 121° |
| 2026-05-07 16:14 | -14.74179 | -71.49468 | 25162 ft | 316 kts | 120° |
| 2026-05-07 16:14 | -14.75265 | -71.47493 | 25162 ft | 316 kts | 121° |
| 2026-05-07 16:14 | -14.76349 | -71.45523 | 25164 ft | 316 kts | 121° |
| 2026-05-07 16:14 | -14.77434 | -71.43550 | 25159 ft | 316 kts | 120° |
| 2026-05-07 16:15 | -14.78518 | -71.41575 | 25160 ft | 316 kts | 121° |
| 2026-05-07 16:15 | -14.79587 | -71.39625 | 25159 ft | 316 kts | 121° |
| 2026-05-07 16:15 | -14.80686 | -71.37623 | 25158 ft | 316 kts | 121° |
| 2026-05-07 16:15 | -14.81759 | -71.35673 | 25163 ft | 316 kts | 121° |
| 2026-05-07 16:16 | -14.82843 | -71.33698 | 25159 ft | 316 kts | 120° |
| 2026-05-07 16:16 | -14.83926 | -71.31722 | 25157 ft | 316 kts | 120° |
| 2026-05-07 16:16 | -14.85009 | -71.29746 | 25163 ft | 316 kts | 120° |
| 2026-05-07 16:16 | -14.86095 | -71.27769 | 25163 ft | 316 kts | 121° |
| 2026-05-07 16:17 | -14.87178 | -71.25795 | 25157 ft | 316 kts | 120° |
| 2026-05-07 16:17 | -14.88261 | -71.23816 | 25159 ft | 316 kts | 120° |
| 2026-05-07 16:17 | -14.89343 | -71.21838 | 25160 ft | 316 kts | 120° |
| 2026-05-07 16:17 | -14.90430 | -71.19857 | 25158 ft | 316 kts | 120° |
| 2026-05-07 16:18 | -14.91514 | -71.17880 | 25155 ft | 317 kts | 120° |
| 2026-05-07 16:18 | -14.92599 | -71.15897 | 25157 ft | 317 kts | 120° |
| 2026-05-07 16:18 | -14.93683 | -71.13915 | 25158 ft | 317 kts | 120° |
| 2026-05-07 16:18 | -14.94770 | -71.11931 | 25159 ft | 317 kts | 120° |
| 2026-05-07 16:19 | -14.95855 | -71.09949 | 25157 ft | 317 kts | 120° |
| 2026-05-07 16:19 | -14.96938 | -71.07966 | 25155 ft | 317 kts | 120° |
| 2026-05-07 16:19 | -14.98022 | -71.05984 | 25156 ft | 317 kts | 120° |
| 2026-05-07 16:19 | -14.99107 | -71.04000 | 25155 ft | 317 kts | 120° |
| 2026-05-07 16:20 | -15.00191 | -71.02015 | 25152 ft | 317 kts | 120° |
| 2026-05-07 16:20 | -15.01275 | -71.00031 | 25154 ft | 317 kts | 120° |
| 2026-05-07 16:20 | -15.02363 | -70.98043 | 25153 ft | 317 kts | 120° |
| 2026-05-07 16:20 | -15.03448 | -70.96054 | 25157 ft | 317 kts | 120° |
| 2026-05-07 16:21 | -15.04532 | -70.94067 | 25158 ft | 317 kts | 120° |
| 2026-05-07 16:21 | -15.05616 | -70.92084 | 25155 ft | 317 kts | 120° |
| 2026-05-07 16:21 | -15.06699 | -70.90098 | 25152 ft | 317 kts | 120° |
| 2026-05-07 16:21 | -15.07772 | -70.88106 | 25156 ft | 317 kts | 120° |
| 2026-05-07 16:22 | -15.08841 | -70.86100 | 25157 ft | 317 kts | 120° |
| 2026-05-07 16:22 | -15.09912 | -70.84103 | 25157 ft | 317 kts | 120° |
| 2026-05-07 16:22 | -15.10984 | -70.82113 | 25158 ft | 317 kts | 120° |
| 2026-05-07 16:22 | -15.12060 | -70.80111 | 25151 ft | 318 kts | 120° |
| 2026-05-07 16:23 | -15.13130 | -70.78112 | 25155 ft | 318 kts | 120° |
| 2026-05-07 16:23 | -15.14204 | -70.76108 | 25151 ft | 318 kts | 120° |
| 2026-05-07 16:23 | -15.15280 | -70.74106 | 25151 ft | 319 kts | 120° |
| 2026-05-07 16:23 | -15.16358 | -70.72099 | 25150 ft | 319 kts | 120° |
| 2026-05-07 16:24 | -15.17434 | -70.70090 | 25156 ft | 320 kts | 120° |
| 2026-05-07 16:24 | -15.18509 | -70.68079 | 25140 ft | 319 kts | 120° |
| 2026-05-07 16:24 | -15.19585 | -70.66072 | 25148 ft | 319 kts | 120° |
| 2026-05-07 16:24 | -15.20660 | -70.64067 | 25141 ft | 319 kts | 120° |
| 2026-05-07 16:25 | -15.21735 | -70.62060 | 25144 ft | 319 kts | 120° |
| 2026-05-07 16:25 | -15.22809 | -70.60054 | 25139 ft | 319 kts | 120° |
| 2026-05-07 16:25 | -15.23882 | -70.58047 | 25135 ft | 319 kts | 119° |
| 2026-05-07 16:25 | -15.24956 | -70.56039 | 25138 ft | 319 kts | 119° |
| 2026-05-07 16:26 | -15.26033 | -70.54027 | 25131 ft | 319 kts | 120° |
| 2026-05-07 16:26 | -15.27109 | -70.52017 | 25134 ft | 319 kts | 120° |
| 2026-05-07 16:26 | -15.28185 | -70.50005 | 25125 ft | 320 kts | 119° |
| 2026-05-07 16:26 | -15.28899 | -70.48667 | 25126 ft | 320 kts | 120° |
| 2026-05-07 16:27 | -15.30324 | -70.45998 | 25173 ft | 320 kts | 119° |
| 2026-05-07 16:27 | -15.31404 | -70.43981 | 25209 ft | 320 kts | 120° |
| 2026-05-07 16:27 | -15.32483 | -70.41960 | 25248 ft | 321 kts | 119° |
| 2026-05-07 16:27 | -15.33560 | -70.39940 | 25290 ft | 321 kts | 119° |
| 2026-05-07 16:28 | -15.34641 | -70.37914 | 25329 ft | 321 kts | 119° |
| 2026-05-07 16:28 | -15.35720 | -70.35894 | 25367 ft | 320 kts | 120° |
| 2026-05-07 16:28 | -15.36798 | -70.33874 | 25410 ft | 320 kts | 119° |
| 2026-05-07 16:28 | -15.37871 | -70.31866 | 25451 ft | 320 kts | 119° |
| 2026-05-07 16:29 | -15.38953 | -70.29831 | 25490 ft | 321 kts | 119° |
| 2026-05-07 16:29 | -15.40031 | -70.27807 | 25532 ft | 321 kts | 119° |
| 2026-05-07 16:29 | -15.41113 | -70.25779 | 25574 ft | 321 kts | 119° |
| 2026-05-07 16:29 | -15.42189 | -70.23760 | 25617 ft | 321 kts | 119° |
| 2026-05-07 16:30 | -15.43268 | -70.21732 | 25617 ft | 321 kts | 119° |
| 2026-05-07 16:30 | -15.44347 | -70.19705 | 25621 ft | 321 kts | 119° |
| 2026-05-07 16:30 | -15.45427 | -70.17684 | 25618 ft | 321 kts | 119° |
| 2026-05-07 16:30 | -15.46565 | -70.15696 | 25624 ft | 320 kts | 128° |
| 2026-05-07 16:31 | -15.48152 | -70.14107 | 25621 ft | 318 kts | 146° |
| 2026-05-07 16:31 | -15.50017 | -70.12874 | 25618 ft | 318 kts | 150° |
| 2026-05-07 16:31 | -15.51899 | -70.11678 | 25617 ft | 318 kts | 148° |
| 2026-05-07 16:31 | -15.53751 | -70.10420 | 25619 ft | 318 kts | 147° |
| 2026-05-07 16:32 | -15.55591 | -70.09147 | 25576 ft | 318 kts | 147° |
| 2026-05-07 16:32 | -15.57442 | -70.07892 | 25536 ft | 318 kts | 148° |
| 2026-05-07 16:32 | -15.59298 | -70.06645 | 25490 ft | 318 kts | 148° |
| 2026-05-07 16:32 | -15.61151 | -70.05392 | 25448 ft | 318 kts | 148° |
| 2026-05-07 16:33 | -15.63004 | -70.04133 | 25405 ft | 318 kts | 148° |
| 2026-05-07 16:33 | -15.64858 | -70.02875 | 25363 ft | 318 kts | 148° |
| 2026-05-07 16:33 | -15.66712 | -70.01620 | 25321 ft | 318 kts | 148° |
| 2026-05-07 16:33 | -15.68567 | -70.00362 | 25275 ft | 319 kts | 148° |
| 2026-05-07 16:34 | -15.70427 | -69.99101 | 25237 ft | 320 kts | 148° |
| 2026-05-07 16:34 | -15.72286 | -69.97839 | 25184 ft | 319 kts | 148° |
| 2026-05-07 16:34 | -15.74146 | -69.96577 | 25143 ft | 319 kts | 148° |
| 2026-05-07 16:34 | -15.76006 | -69.95315 | 25099 ft | 319 kts | 148° |
| 2026-05-07 16:35 | -15.77864 | -69.94054 | 25090 ft | 319 kts | 148° |
| 2026-05-07 16:35 | -15.79720 | -69.92794 | 25091 ft | 319 kts | 148° |
| 2026-05-07 16:35 | -15.81578 | -69.91532 | 25092 ft | 319 kts | 148° |
| 2026-05-07 16:35 | -15.83438 | -69.90268 | 25091 ft | 319 kts | 148° |
| 2026-05-07 16:36 | -15.85293 | -69.89008 | 25094 ft | 319 kts | 148° |
| 2026-05-07 16:36 | -15.87151 | -69.87745 | 25090 ft | 319 kts | 148° |
| 2026-05-07 16:36 | -15.89010 | -69.86483 | 25094 ft | 319 kts | 148° |
| 2026-05-07 16:36 | -15.90866 | -69.85220 | 25091 ft | 319 kts | 148° |
| 2026-05-07 16:37 | -15.92726 | -69.83956 | 25091 ft | 320 kts | 148° |
| 2026-05-07 16:37 | -15.94585 | -69.82691 | 25094 ft | 320 kts | 148° |
| 2026-05-07 16:37 | -15.96448 | -69.81423 | 25094 ft | 320 kts | 148° |
| 2026-05-07 16:37 | -15.98309 | -69.80158 | 25095 ft | 320 kts | 148° |
| 2026-05-07 16:38 | -16.00174 | -69.78889 | 25097 ft | 320 kts | 148° |
| 2026-05-07 16:38 | -16.02035 | -69.77620 | 25093 ft | 320 kts | 148° |
| 2026-05-07 16:38 | -16.03900 | -69.76349 | 25101 ft | 320 kts | 148° |
| 2026-05-07 16:38 | -16.05765 | -69.75082 | 25095 ft | 321 kts | 148° |
| 2026-05-07 16:39 | -16.07635 | -69.73809 | 25099 ft | 321 kts | 148° |
| 2026-05-07 16:39 | -16.09504 | -69.72535 | 25099 ft | 322 kts | 148° |
| 2026-05-07 16:39 | -16.11377 | -69.71256 | 25099 ft | 322 kts | 148° |
| 2026-05-07 16:39 | -16.13254 | -69.69978 | 25095 ft | 322 kts | 148° |
| 2026-05-07 16:40 | -16.15127 | -69.68701 | 25095 ft | 322 kts | 148° |
| 2026-05-07 16:40 | -16.17003 | -69.67422 | 25096 ft | 322 kts | 148° |
| 2026-05-07 16:40 | -16.18875 | -69.66144 | 25098 ft | 322 kts | 148° |
| 2026-05-07 16:40 | -16.20749 | -69.64865 | 25097 ft | 322 kts | 148° |
| 2026-05-07 16:41 | -16.22620 | -69.63588 | 25096 ft | 322 kts | 148° |
| 2026-05-07 16:41 | -16.24494 | -69.62310 | 25092 ft | 322 kts | 148° |
| 2026-05-07 16:41 | -16.26340 | -69.61049 | 25094 ft | 322 kts | 148° |
| 2026-05-07 16:41 | -16.28238 | -69.59752 | 25093 ft | 322 kts | 148° |
| 2026-05-07 16:42 | -16.30109 | -69.58474 | 25088 ft | 322 kts | 148° |
| 2026-05-07 16:42 | -16.31981 | -69.57196 | 25087 ft | 322 kts | 148° |
| 2026-05-07 16:42 | -16.33856 | -69.55915 | 25088 ft | 322 kts | 148° |
| 2026-05-07 16:42 | -16.35700 | -69.54653 | 25087 ft | 322 kts | 148° |
| 2026-05-07 16:43 | -16.37571 | -69.53374 | 25084 ft | 321 kts | 148° |
| 2026-05-07 16:43 | -16.39440 | -69.52096 | 25083 ft | 321 kts | 148° |
| 2026-05-07 16:43 | -16.41307 | -69.50819 | 25089 ft | 321 kts | 148° |
| 2026-05-07 16:43 | -16.43173 | -69.49542 | 25080 ft | 321 kts | 147° |
| 2026-05-07 16:44 | -16.45043 | -69.48261 | 25085 ft | 321 kts | 148° |
| 2026-05-07 16:44 | -16.46912 | -69.46983 | 25079 ft | 322 kts | 148° |
| 2026-05-07 16:44 | -16.48778 | -69.45706 | 25086 ft | 321 kts | 148° |
| 2026-05-07 16:44 | -16.50643 | -69.44428 | 25083 ft | 321 kts | 147° |
| 2026-05-07 16:45 | -16.52513 | -69.43147 | 25081 ft | 321 kts | 148° |
| 2026-05-07 16:45 | -16.54376 | -69.41871 | 25081 ft | 321 kts | 147° |
| 2026-05-07 16:45 | -16.56246 | -69.40589 | 25077 ft | 321 kts | 147° |
| 2026-05-07 16:45 | -16.58115 | -69.39308 | 25077 ft | 322 kts | 147° |
| 2026-05-07 16:46 | -16.59376 | -69.38442 | 25076 ft | 322 kts | 147° |
| 2026-05-07 16:46 | -16.61249 | -69.37157 | 25078 ft | 322 kts | 147° |
| 2026-05-07 16:46 | -16.63122 | -69.35873 | 25081 ft | 323 kts | 148° |
| 2026-05-07 16:46 | -16.64971 | -69.34607 | 25075 ft | 322 kts | 147° |
| 2026-05-07 16:47 | -16.66847 | -69.33318 | 25077 ft | 323 kts | 147° |
| 2026-05-07 16:47 | -16.68718 | -69.32031 | 25079 ft | 323 kts | 147° |
| 2026-05-07 16:47 | -16.70595 | -69.30743 | 25072 ft | 323 kts | 147° |
| 2026-05-07 16:47 | -16.72475 | -69.29454 | 25074 ft | 324 kts | 147° |
| 2026-05-07 16:48 | -16.74356 | -69.28161 | 25068 ft | 324 kts | 147° |
| 2026-05-07 16:48 | -16.76241 | -69.26867 | 25068 ft | 325 kts | 147° |
| 2026-05-07 16:48 | -16.78128 | -69.25569 | 25067 ft | 325 kts | 147° |
| 2026-05-07 16:48 | -16.80014 | -69.24272 | 25068 ft | 325 kts | 147° |
| 2026-05-07 16:49 | -16.81903 | -69.22974 | 25071 ft | 325 kts | 147° |
| 2026-05-07 16:49 | -16.83791 | -69.21677 | 25065 ft | 325 kts | 147° |
| 2026-05-07 16:49 | -16.85687 | -69.20392 | 25067 ft | 325 kts | 148° |
| 2026-05-07 16:49 | -16.87594 | -69.19125 | 25064 ft | 325 kts | 148° |
| 2026-05-07 16:50 | -16.89498 | -69.17853 | 25067 ft | 325 kts | 148° |
| 2026-05-07 16:50 | -16.91394 | -69.16572 | 25066 ft | 325 kts | 148° |
| 2026-05-07 16:50 | -16.93293 | -69.15293 | 25062 ft | 325 kts | 148° |
| 2026-05-07 16:50 | -16.95193 | -69.14016 | 25059 ft | 325 kts | 148° |
| 2026-05-07 16:51 | -16.97093 | -69.12739 | 25064 ft | 325 kts | 148° |
| 2026-05-07 16:51 | -16.98992 | -69.11461 | 25059 ft | 325 kts | 148° |
| 2026-05-07 16:51 | -17.00891 | -69.10182 | 25058 ft | 325 kts | 148° |
| 2026-05-07 16:51 | -17.02792 | -69.08905 | 25057 ft | 325 kts | 148° |
| 2026-05-07 16:52 | -17.04695 | -69.07627 | 25059 ft | 325 kts | 148° |
| 2026-05-07 16:52 | -17.06598 | -69.06350 | 25058 ft | 325 kts | 148° |
| 2026-05-07 16:52 | -17.08500 | -69.05070 | 25058 ft | 325 kts | 148° |
| 2026-05-07 16:52 | -17.10404 | -69.03789 | 25051 ft | 325 kts | 147° |
| 2026-05-07 16:53 | -17.12308 | -69.02509 | 25050 ft | 325 kts | 147° |
| 2026-05-07 16:53 | -17.14210 | -69.01230 | 25049 ft | 326 kts | 148° |
| 2026-05-07 16:53 | -17.16114 | -68.99950 | 25049 ft | 325 kts | 147° |
| 2026-05-07 16:53 | -17.18018 | -68.98668 | 25048 ft | 326 kts | 147° |
| 2026-05-07 16:54 | -17.19921 | -68.97381 | 25051 ft | 326 kts | 147° |
| 2026-05-07 16:54 | -17.21820 | -68.96087 | 25044 ft | 326 kts | 147° |
| 2026-05-07 16:54 | -17.23719 | -68.94793 | 25050 ft | 326 kts | 147° |
| 2026-05-07 16:54 | -17.25595 | -68.93518 | 25043 ft | 326 kts | 147° |
| 2026-05-07 16:55 | -17.27497 | -68.92225 | 25043 ft | 326 kts | 147° |
| 2026-05-07 16:55 | -17.29399 | -68.90931 | 25046 ft | 326 kts | 151° |
| 2026-05-07 16:55 | -17.31300 | -68.89641 | 25047 ft | 325 kts | 151° |
| 2026-05-07 16:55 | -17.33189 | -68.88355 | 25047 ft | 324 kts | 151° |
| 2026-05-07 16:56 | -17.35078 | -68.87067 | 25041 ft | 323 kts | 151° |
| 2026-05-07 16:56 | -17.36960 | -68.85786 | 25042 ft | 323 kts | 151° |
| 2026-05-07 16:56 | -17.40726 | -68.83222 | 25043 ft | 323 kts | 151° |
| 2026-05-07 16:57 | -17.42606 | -68.81941 | 25043 ft | 322 kts | 151° |
| 2026-05-07 16:57 | -17.44483 | -68.80660 | 25043 ft | 322 kts | 152° |
| 2026-05-07 16:57 | -17.46363 | -68.79380 | 25040 ft | 322 kts | 152° |
| 2026-05-07 16:57 | -17.48238 | -68.78101 | 25042 ft | 322 kts | 152° |
| 2026-05-07 16:58 | -17.50114 | -68.76822 | 25042 ft | 322 kts | 151° |
| 2026-05-07 16:58 | -17.51987 | -68.75544 | 25036 ft | 322 kts | 152° |
| 2026-05-07 16:58 | -17.53863 | -68.74264 | 25038 ft | 322 kts | 151° |
| 2026-05-07 16:58 | -17.55742 | -68.72982 | 25038 ft | 322 kts | 151° |
| 2026-05-07 16:59 | -17.57623 | -68.71697 | 25041 ft | 323 kts | 151° |
| 2026-05-07 16:59 | -17.59503 | -68.70413 | 25041 ft | 323 kts | 152° |
| 2026-05-07 16:59 | -17.61384 | -68.69128 | 25043 ft | 323 kts | 152° |
| 2026-05-07 16:59 | -17.63262 | -68.67845 | 25038 ft | 323 kts | 152° |
| 2026-05-07 17:00 | -17.65142 | -68.66560 | 25038 ft | 323 kts | 152° |
| 2026-05-07 17:00 | -17.67024 | -68.65275 | 25037 ft | 322 kts | 152° |
| 2026-05-07 17:00 | -17.68901 | -68.63991 | 25040 ft | 322 kts | 152° |
| 2026-05-07 17:00 | -17.70780 | -68.62705 | 25032 ft | 322 kts | 152° |
| 2026-05-07 17:01 | -17.72659 | -68.61420 | 25033 ft | 323 kts | 152° |
| 2026-05-07 17:01 | -17.74540 | -68.60134 | 25033 ft | 322 kts | 152° |
| 2026-05-07 17:01 | -17.76415 | -68.58848 | 25033 ft | 322 kts | 152° |
| 2026-05-07 17:01 | -17.78296 | -68.57561 | 25037 ft | 322 kts | 152° |
| 2026-05-07 17:02 | -17.80174 | -68.56277 | 25038 ft | 322 kts | 152° |
| 2026-05-07 17:02 | -17.82053 | -68.54989 | 25041 ft | 323 kts | 152° |
| 2026-05-07 17:02 | -17.83931 | -68.53701 | 25036 ft | 323 kts | 152° |
| 2026-05-07 17:02 | -17.85787 | -68.52431 | 25038 ft | 322 kts | 152° |
| 2026-05-07 17:03 | -17.87688 | -68.51128 | 25036 ft | 323 kts | 152° |
| 2026-05-07 17:03 | -17.89540 | -68.49856 | 25039 ft | 322 kts | 152° |
| 2026-05-07 17:03 | -17.91444 | -68.48551 | 25039 ft | 322 kts | 152° |
| 2026-05-07 17:03 | -17.93320 | -68.47265 | 25038 ft | 322 kts | 152° |
| 2026-05-07 17:04 | -17.95171 | -68.45994 | 25038 ft | 322 kts | 152° |
| 2026-05-07 17:04 | -17.97046 | -68.44707 | 25041 ft | 322 kts | 152° |
| 2026-05-07 17:04 | -17.98921 | -68.43420 | 25037 ft | 322 kts | 152° |
| 2026-05-07 17:04 | -18.00821 | -68.42114 | 25040 ft | 321 kts | 152° |
| 2026-05-07 17:05 | -18.02692 | -68.40830 | 25037 ft | 321 kts | 152° |
| 2026-05-07 17:05 | -18.04536 | -68.39563 | 25036 ft | 321 kts | 152° |
| 2026-05-07 17:05 | -18.06404 | -68.38270 | 25035 ft | 323 kts | 152° |
| 2026-05-07 17:05 | -18.08270 | -68.36967 | 25034 ft | 322 kts | 152° |
| 2026-05-07 17:06 | -18.10142 | -68.35665 | 25036 ft | 323 kts | 152° |
| 2026-05-07 17:06 | -18.12023 | -68.34361 | 25026 ft | 324 kts | 152° |
| 2026-05-07 17:06 | -18.13893 | -68.33063 | 25030 ft | 322 kts | 152° |
| 2026-05-07 17:06 | -18.15760 | -68.31765 | 25033 ft | 322 kts | 152° |
| 2026-05-07 17:07 | -18.17625 | -68.30468 | 25033 ft | 322 kts | 152° |
| 2026-05-07 17:07 | -18.19496 | -68.29165 | 25031 ft | 323 kts | 152° |
| 2026-05-07 17:07 | -18.21372 | -68.27861 | 25031 ft | 323 kts | 152° |
| 2026-05-07 17:07 | -18.23253 | -68.26554 | 25030 ft | 324 kts | 152° |
| 2026-05-07 17:08 | -18.25133 | -68.25245 | 25031 ft | 324 kts | 152° |
| 2026-05-07 17:08 | -18.27013 | -68.23935 | 25026 ft | 324 kts | 152° |
| 2026-05-07 17:08 | -18.28896 | -68.22625 | 25027 ft | 324 kts | 152° |
| 2026-05-07 17:08 | -18.30775 | -68.21316 | 25026 ft | 324 kts | 152° |
| 2026-05-07 17:09 | -18.32657 | -68.20005 | 25025 ft | 325 kts | 152° |
| 2026-05-07 17:09 | -18.34542 | -68.18691 | 25023 ft | 325 kts | 152° |
| 2026-05-07 17:09 | -18.36428 | -68.17377 | 25020 ft | 325 kts | 152° |
| 2026-05-07 17:09 | -18.38310 | -68.16064 | 25019 ft | 325 kts | 152° |
| 2026-05-07 17:10 | -18.40198 | -68.14748 | 25020 ft | 325 kts | 152° |
| 2026-05-07 17:10 | -18.42085 | -68.13432 | 25020 ft | 325 kts | 152° |
| 2026-05-07 17:10 | -18.43970 | -68.12116 | 25018 ft | 326 kts | 152° |
| 2026-05-07 17:10 | -18.45862 | -68.10795 | 25020 ft | 326 kts | 153° |
| 2026-05-07 17:11 | -18.47750 | -68.09477 | 25018 ft | 326 kts | 153° |
| 2026-05-07 17:11 | -18.49642 | -68.08157 | 25018 ft | 326 kts | 153° |
| 2026-05-07 17:11 | -18.51534 | -68.06835 | 25014 ft | 327 kts | 153° |
| 2026-05-07 17:11 | -18.53426 | -68.05512 | 25011 ft | 327 kts | 153° |
| 2026-05-07 17:12 | -18.55324 | -68.04186 | 25016 ft | 327 kts | 153° |
| 2026-05-07 17:12 | -18.57221 | -68.02860 | 25020 ft | 327 kts | 153° |
| 2026-05-07 17:12 | -18.59118 | -68.01534 | 25021 ft | 328 kts | 153° |
| 2026-05-07 17:12 | -18.61019 | -68.00204 | 25019 ft | 328 kts | 153° |
| 2026-05-07 17:13 | -18.62920 | -67.98873 | 25021 ft | 328 kts | 153° |
| 2026-05-07 17:13 | -18.64823 | -67.97543 | 25020 ft | 328 kts | 153° |
| 2026-05-07 17:13 | -18.66723 | -67.96211 | 25024 ft | 328 kts | 153° |
| 2026-05-07 17:13 | -18.68622 | -67.94881 | 25024 ft | 328 kts | 153° |
| 2026-05-07 17:14 | -18.70242 | -67.93747 | 25026 ft | 328 kts | 153° |
| 2026-05-07 17:14 | -18.72143 | -67.92416 | 25027 ft | 328 kts | 153° |
| 2026-05-07 17:14 | -18.74042 | -67.91083 | 25030 ft | 328 kts | 153° |
| 2026-05-07 17:14 | -18.75943 | -67.89752 | 25033 ft | 328 kts | 153° |
| 2026-05-07 17:15 | -18.77842 | -67.88420 | 25032 ft | 328 kts | 153° |
| 2026-05-07 17:15 | -18.79742 | -67.87088 | 25036 ft | 328 kts | 153° |
| 2026-05-07 17:15 | -18.81639 | -67.85756 | 25039 ft | 328 kts | 153° |
| 2026-05-07 17:15 | -18.83538 | -67.84424 | 25039 ft | 328 kts | 153° |
| 2026-05-07 17:16 | -18.85440 | -67.83089 | 25035 ft | 328 kts | 153° |
| 2026-05-07 17:16 | -18.87342 | -67.81753 | 25043 ft | 328 kts | 153° |
| 2026-05-07 17:16 | -18.89242 | -67.80418 | 25043 ft | 328 kts | 153° |
| 2026-05-07 17:16 | -18.91144 | -67.79083 | 25044 ft | 329 kts | 153° |
| 2026-05-07 17:17 | -18.93046 | -67.77746 | 25047 ft | 329 kts | 153° |
| 2026-05-07 17:17 | -18.94950 | -67.76408 | 25046 ft | 329 kts | 153° |
| 2026-05-07 17:17 | -18.96854 | -67.75068 | 25044 ft | 329 kts | 153° |
| 2026-05-07 17:17 | -18.98760 | -67.73729 | 25046 ft | 329 kts | 153° |
| 2026-05-07 17:18 | -19.00667 | -67.72387 | 25047 ft | 329 kts | 153° |
| 2026-05-07 17:18 | -19.02576 | -67.71044 | 25045 ft | 330 kts | 153° |
| 2026-05-07 17:18 | -19.04459 | -67.69718 | 25044 ft | 330 kts | 153° |
| 2026-05-07 17:18 | -19.06372 | -67.68372 | 25046 ft | 330 kts | 153° |
| 2026-05-07 17:19 | -19.08284 | -67.67025 | 25046 ft | 330 kts | 153° |
| 2026-05-07 17:19 | -19.10196 | -67.65678 | 25047 ft | 331 kts | 153° |
| 2026-05-07 17:19 | -19.12112 | -67.64328 | 25050 ft | 331 kts | 153° |
| 2026-05-07 17:19 | -19.14028 | -67.62976 | 25046 ft | 331 kts | 153° |
| 2026-05-07 17:20 | -19.15949 | -67.61623 | 25045 ft | 332 kts | 153° |
| 2026-05-07 17:20 | -19.17869 | -67.60268 | 25049 ft | 332 kts | 153° |
| 2026-05-07 17:20 | -19.19789 | -67.58914 | 25052 ft | 332 kts | 153° |
| 2026-05-07 17:20 | -19.21708 | -67.57560 | 25049 ft | 332 kts | 153° |
| 2026-05-07 17:21 | -19.23628 | -67.56204 | 25046 ft | 332 kts | 153° |
| 2026-05-07 17:21 | -19.25548 | -67.54848 | 25047 ft | 332 kts | 153° |
| 2026-05-07 17:21 | -19.27469 | -67.53492 | 25052 ft | 332 kts | 153° |
| 2026-05-07 17:21 | -19.29390 | -67.52134 | 25047 ft | 332 kts | 153° |
| 2026-05-07 17:22 | -19.31312 | -67.50776 | 25049 ft | 332 kts | 153° |
| 2026-05-07 17:22 | -19.33234 | -67.49418 | 25050 ft | 332 kts | 153° |
| 2026-05-07 17:22 | -19.35158 | -67.48057 | 25048 ft | 333 kts | 153° |
| 2026-05-07 17:22 | -19.37081 | -67.46697 | 25047 ft | 333 kts | 153° |
| 2026-05-07 17:23 | -19.39004 | -67.45336 | 25049 ft | 332 kts | 153° |
| 2026-05-07 17:23 | -19.40927 | -67.43976 | 25046 ft | 333 kts | 153° |
| 2026-05-07 17:23 | -19.42854 | -67.42611 | 25049 ft | 333 kts | 153° |
| 2026-05-07 17:23 | -19.44778 | -67.41248 | 25049 ft | 333 kts | 153° |
| 2026-05-07 17:24 | -19.46704 | -67.39884 | 25043 ft | 333 kts | 153° |
| 2026-05-07 17:24 | -19.48632 | -67.38519 | 25050 ft | 333 kts | 153° |
| 2026-05-07 17:24 | -19.50563 | -67.37150 | 25044 ft | 334 kts | 153° |
| 2026-05-07 17:24 | -19.52494 | -67.35781 | 25045 ft | 334 kts | 153° |
| 2026-05-07 17:25 | -19.54426 | -67.34410 | 25044 ft | 333 kts | 154° |
| 2026-05-07 17:25 | -19.56354 | -67.33043 | 25042 ft | 333 kts | 154° |
| 2026-05-07 17:25 | -19.58280 | -67.31676 | 25046 ft | 333 kts | 154° |
| 2026-05-07 17:25 | -19.60207 | -67.30308 | 25047 ft | 333 kts | 154° |
| 2026-05-07 17:26 | -19.62133 | -67.28940 | 25045 ft | 334 kts | 154° |
| 2026-05-07 17:26 | -19.64061 | -67.27571 | 25051 ft | 334 kts | 154° |
| 2026-05-07 17:26 | -19.65990 | -67.26201 | 25052 ft | 334 kts | 154° |
| 2026-05-07 17:26 | -19.67919 | -67.24831 | 25049 ft | 334 kts | 154° |
| 2026-05-07 17:27 | -19.69850 | -67.23458 | 25055 ft | 334 kts | 154° |
| 2026-05-07 17:27 | -19.71780 | -67.22086 | 25051 ft | 334 kts | 154° |
| 2026-05-07 17:27 | -19.73711 | -67.20712 | 25053 ft | 334 kts | 154° |
| 2026-05-07 17:27 | -19.75643 | -67.19337 | 25053 ft | 335 kts | 154° |
| 2026-05-07 17:28 | -19.77581 | -67.17958 | 25053 ft | 335 kts | 154° |
| 2026-05-07 17:28 | -19.79491 | -67.16599 | 25054 ft | 336 kts | 154° |
| 2026-05-07 17:28 | -19.81435 | -67.15215 | 25058 ft | 337 kts | 154° |
| 2026-05-07 17:28 | -19.83378 | -67.13829 | 25054 ft | 337 kts | 154° |
| 2026-05-07 17:29 | -19.85324 | -67.12443 | 25062 ft | 337 kts | 154° |
| 2026-05-07 17:29 | -19.87269 | -67.11057 | 25065 ft | 337 kts | 154° |
| 2026-05-07 17:29 | -19.89216 | -67.09670 | 25063 ft | 337 kts | 154° |
| 2026-05-07 17:29 | -19.91164 | -67.08280 | 25066 ft | 338 kts | 154° |
| 2026-05-07 17:30 | -19.93117 | -67.06887 | 25068 ft | 338 kts | 154° |
| 2026-05-07 17:30 | -19.95071 | -67.05492 | 25069 ft | 338 kts | 154° |
| 2026-05-07 17:30 | -19.97024 | -67.04098 | 25071 ft | 339 kts | 153° |
| 2026-05-07 17:30 | -19.98980 | -67.02701 | 25071 ft | 339 kts | 154° |
| 2026-05-07 17:31 | -20.00936 | -67.01304 | 25073 ft | 339 kts | 154° |
| 2026-05-07 17:31 | -20.02892 | -66.99906 | 25078 ft | 338 kts | 154° |
| 2026-05-07 17:31 | -20.04843 | -66.98512 | 25081 ft | 338 kts | 154° |
| 2026-05-07 17:31 | -20.06838 | -66.97272 | 25063 ft | 319 kts | 166° |
| 2026-05-07 17:32 | -20.08873 | -66.96549 | 24701 ft | 301 kts | 174° |
| 2026-05-07 17:32 | -20.10878 | -66.95964 | 24186 ft | 298 kts | 174° |
| 2026-05-07 17:32 | -20.12197 | -66.95558 | 23851 ft | 298 kts | 172° |
| 2026-05-07 17:32 | -20.14172 | -66.94904 | 23288 ft | 297 kts | 171° |
| 2026-05-07 17:33 | -20.16133 | -66.94247 | 22693 ft | 294 kts | 172° |
| 2026-05-07 17:33 | -20.18082 | -66.93614 | 22108 ft | 291 kts | 172° |
| 2026-05-07 17:33 | -20.20013 | -66.92992 | 21547 ft | 289 kts | 172° |
| 2026-05-07 17:33 | -20.21930 | -66.92357 | 20939 ft | 290 kts | 168° |
| 2026-05-07 17:34 | -20.23726 | -66.91305 | 20357 ft | 302 kts | 148° |
| 2026-05-07 17:34 | -20.25135 | -66.89618 | 19783 ft | 310 kts | 127° |
| 2026-05-07 17:34 | -20.25972 | -66.87489 | 19223 ft | 315 kts | 106° |
| 2026-05-07 17:34 | -20.26183 | -66.85168 | 18667 ft | 316 kts | 91° |
| 2026-05-07 17:35 | -20.25986 | -66.82847 | 18089 ft | 314 kts | 85° |
| 2026-05-07 17:35 | -20.25965 | -66.80547 | 17460 ft | 309 kts | 96° |
| 2026-05-07 17:35 | -20.26252 | -66.78295 | 16856 ft | 305 kts | 105° |
| 2026-05-07 17:35 | -20.26804 | -66.76139 | 16255 ft | 300 kts | 112° |
| 2026-05-07 17:36 | -20.27573 | -66.74131 | 16005 ft | 280 kts | 119° |
| 2026-05-07 17:36 | -20.28453 | -66.72368 | 16007 ft | 261 kts | 126° |
| 2026-05-07 17:36 | -20.29425 | -66.70808 | 15987 ft | 244 kts | 132° |
| 2026-05-07 17:36 | -20.30457 | -66.69439 | 15992 ft | 230 kts | 138° |
| 2026-05-07 17:37 | -20.31518 | -66.68249 | 15991 ft | 215 kts | 143° |
| 2026-05-07 17:37 | -20.32628 | -66.67186 | 15977 ft | 212 kts | 148° |
| 2026-05-07 17:37 | -20.33776 | -66.66240 | 15985 ft | 206 kts | 153° |
| 2026-05-07 17:37 | -20.34954 | -66.65408 | 15980 ft | 199 kts | 157° |
| 2026-05-07 17:38 | -20.36138 | -66.64699 | 15981 ft | 194 kts | 162° |
| 2026-05-07 17:38 | -20.37355 | -66.64078 | 15970 ft | 195 kts | 166° |
| 2026-05-07 17:38 | -20.38666 | -66.63526 | 15975 ft | 210 kts | 169° |
| 2026-05-07 17:38 | -20.40107 | -66.63048 | 15984 ft | 223 kts | 173° |
| 2026-05-07 17:39 | -20.41650 | -66.62670 | 15988 ft | 232 kts | 177° |
| 2026-05-07 17:39 | -20.43275 | -66.62418 | 15984 ft | 240 kts | 181° |
| 2026-05-07 17:39 | -20.44957 | -66.62306 | 15983 ft | 245 kts | 186° |
| 2026-05-07 17:39 | -20.46671 | -66.62348 | 15975 ft | 247 kts | 191° |
| 2026-05-07 17:40 | -20.48317 | -66.62534 | 15922 ft | 230 kts | 196° |
| 2026-05-07 17:40 | -20.49863 | -66.62847 | 15674 ft | 224 kts | 200° |
| 2026-05-07 17:40 | -20.51362 | -66.63285 | 15345 ft | 224 kts | 204° |
| 2026-05-07 17:40 | -20.52822 | -66.63845 | 15020 ft | 222 kts | 208° |
| 2026-05-07 17:41 | -20.54226 | -66.64526 | 14693 ft | 221 kts | 215° |
| 2026-05-07 17:41 | -20.55331 | -66.65570 | 14395 ft | 213 kts | 239° |
| 2026-05-07 17:41 | -20.55846 | -66.66993 | 14010 ft | 205 kts | 264° |
| 2026-05-07 17:41 | -20.55655 | -66.68482 | 13583 ft | 206 kts | 290° |
| 2026-05-07 17:42 | -20.54797 | -66.69718 | 13126 ft | 213 kts | 316° |
| 2026-05-07 17:42 | -20.53575 | -66.70615 | 12769 ft | 213 kts | 322° |
| 2026-05-07 17:42 | -20.52404 | -66.71567 | 12675 ft | 214 kts | 316° |
| 2026-05-07 17:42 | -20.51421 | -66.72781 | 12854 ft | 219 kts | 301° |
| 2026-05-07 17:43 | -20.50596 | -66.74197 | 12948 ft | 229 kts | 297° |
| 2026-05-07 17:43 | -20.49853 | -66.75507 | 12955 ft | 184 kts | 297° |
| 2026-05-07 17:43 | -20.49233 | -66.76561 | 12872 ft | 156 kts | 298° |
| 2026-05-07 17:43 | -20.48675 | -66.77504 | 12758 ft | 145 kts | 297° |
| 2026-05-07 17:44 | -20.48152 | -66.78400 | 12647 ft | 140 kts | 297° |
| 2026-05-07 17:44 | -20.47682 | -66.79293 | 12528 ft | 135 kts | 291° |
| 2026-05-07 17:44 | -20.47280 | -66.80169 | 12449 ft | 129 kts | 294° |
| 2026-05-07 17:44 | -20.46800 | -66.80971 | 12430 ft | 129 kts | 299° |
| 2026-05-07 17:45 | -20.46349 | -66.81796 | 12462 ft | 129 kts | 295° |
| 2026-05-07 17:45 | -20.45896 | -66.82592 | 12378 ft | 121 kts | 299° |
| 2026-05-07 17:45 | -20.45489 | -66.83333 | 12228 ft | 113 kts | 295° |
| 2026-05-07 17:45 | -20.45083 | -66.84060 | 12073 ft | 113 kts | 296° |
| 2026-05-07 17:46 | -20.44711 | -66.84705 | 11992 ft | 89 kts | 295° |
| 2026-05-07 17:46 | -20.44457 | -66.85190 | 11988 ft | 60 kts | 298° |
| 2026-05-07 17:46 | -20.44353 | -66.85368 | 11989 ft | 3 kts | 356° |
| 2026-05-07 17:46 | -20.44349 | -66.85357 | 11991 ft | 10 kts | 104° |
| 2026-05-07 17:47 | -20.44417 | -66.85241 | 11988 ft | 23 kts | 124° |
| 2026-05-07 17:47 | -20.44515 | -66.85085 | 11990 ft | 27 kts | 116° |
| 2026-05-07 17:47 | -20.44583 | -66.84911 | 11987 ft | 16 kts | 100° |
| 2026-05-07 17:47 | -20.44583 | -66.84796 | 11988 ft | 16 kts | 78° |
| 2026-05-07 17:48 | -20.44563 | -66.84678 | 11986 ft | 16 kts | 91° |
| 2026-05-07 17:48 | -20.44603 | -66.84571 | 11988 ft | 16 kts | 115° |
| 2026-05-07 17:48 | -20.44658 | -66.84463 | 11987 ft | 17 kts | 113° |
| 2026-05-07 17:48 | -20.44609 | -66.84367 | 11985 ft | 16 kts | 44° |
| 2026-05-07 17:49 | -20.44564 | -66.84324 | 11989 ft | 1 kts | 70° |
| 2026-05-07 17:49 | -20.44565 | -66.84320 | 11984 ft | 0 kts | 119° |